ドーハ の空港の天気 - METARとTAF

ドーハ国際空港 ( OTBD / DOH ) - カタール ドーハ
飛行場実況気象(Metar)
観測時間03/29 00:00 +03 (03/28 21:00 UTC)
風向・風速北 2m/s
視程10km以上
天気現象
なし
気温21℃
湿度78%
気圧1014hPa
METAROTBD 282100Z 01004KT CAVOK 21/17 Q1014 NOSIG
過去の天気等 Google飛行場航空写真 Wunderground天気予報

過去48時間のMETAR

飛行場予報(TAF)
発表時間: 3/28 20:22 +03 (3/28 17:22 UTC)
予報対象時間: 28日21時 +03 ~ 30日3時 +03
風向・風速北 4m/s
視程10km以上
なし
29日0時 +03 ~ 29日7時 +03 に一時的に
風向・風速不定 1m/s
視程5,000m
天気現象煙霧
なし
29日5時 +03 ~ 29日16時 +03 に一時的に
視程8,000m
少しの雲 雲底高度 1,070m
全天の4割程度の雲 雲底高度 3,050m
29日6時 +03 ~ 29日13時 +03 に 確率 30% で一時的に
視程6,000m
天気現象弱い雨
29日10時 +03 ~ 29日12時 +03 に徐々に
風向・風速東 4m/s
TAF OTBD 281722Z 2818/2924 36008KT CAVOK
TEMPO 2821/2904 VRB02KT 5000 HZ NSC
TEMPO 2902/2913 8000 FEW035 SCT100
PROB30 TEMPO 2903/2910 6000 -RA
BECMG 2907/2909 09008KT